sensor_id;sensor_type;location;lat;lon;timestamp;pressure;altitude;pressure_sealevel;temperature;humidity
39773;BME280;25451;51.960;6.250;2022-12-18T00:00:45;102717.31;;;-2.19;75.31
39773;BME280;25451;51.960;6.250;2022-12-18T00:03:12;102727.06;;;-2.17;75.11
39773;BME280;25451;51.960;6.250;2022-12-18T00:05:46;102722.84;;;-2.21;75.84
39773;BME280;25451;51.960;6.250;2022-12-18T00:08:11;102717.16;;;-2.29;75.57
39773;BME280;25451;51.960;6.250;2022-12-18T00:10:36;102734.13;;;-2.27;75.17
39773;BME280;25451;51.960;6.250;2022-12-18T00:13:01;102718.50;;;-2.34;75.47
39773;BME280;25451;51.960;6.250;2022-12-18T00:15:27;102718.72;;;-2.37;75.32
39773;BME280;25451;51.960;6.250;2022-12-18T00:17:52;102715.13;;;-2.38;75.36
39773;BME280;25451;51.960;6.250;2022-12-18T00:20:17;102710.84;;;-2.40;75.65
39773;BME280;25451;51.960;6.250;2022-12-18T00:22:48;102711.19;;;-2.45;75.72
39773;BME280;25451;51.960;6.250;2022-12-18T00:25:14;102701.59;;;-2.49;75.85
39773;BME280;25451;51.960;6.250;2022-12-18T00:27:39;102701.91;;;-2.54;75.11
39773;BME280;25451;51.960;6.250;2022-12-18T00:30:05;102697.59;;;-2.56;75.90
39773;BME280;25451;51.960;6.250;2022-12-18T00:32:30;102712.09;;;-2.57;75.30
39773;BME280;25451;51.960;6.250;2022-12-18T00:34:55;102700.75;;;-2.62;75.32
39773;BME280;25451;51.960;6.250;2022-12-18T00:37:20;102699.25;;;-2.66;75.19
39773;BME280;25451;51.960;6.250;2022-12-18T00:39:47;102698.75;;;-2.71;75.21
39773;BME280;25451;51.960;6.250;2022-12-18T00:42:13;102704.03;;;-2.70;75.24
39773;BME280;25451;51.960;6.250;2022-12-18T00:44:56;102704.38;;;-2.74;75.46
39773;BME280;25451;51.960;6.250;2022-12-18T00:47:22;102700.78;;;-2.75;75.90
39773;BME280;25451;51.960;6.250;2022-12-18T00:49:47;102686.78;;;-2.80;75.14
39773;BME280;25451;51.960;6.250;2022-12-18T00:52:12;102681.94;;;-2.87;75.25
39773;BME280;25451;51.960;6.250;2022-12-18T00:54:38;102684.75;;;-2.89;75.69
39773;BME280;25451;51.960;6.250;2022-12-18T00:57:03;102689.31;;;-2.89;75.53
39773;BME280;25451;51.960;6.250;2022-12-18T00:59:28;102692.44;;;-2.95;75.63
39773;BME280;25451;51.960;6.250;2022-12-18T01:01:55;102696.00;;;-2.95;75.68
39773;BME280;25451;51.960;6.250;2022-12-18T01:04:20;102707.66;;;-2.94;75.65
39773;BME280;25451;51.960;6.250;2022-12-18T01:06:45;102701.84;;;-3.01;75.45
39773;BME280;25451;51.960;6.250;2022-12-18T01:09:11;102698.84;;;-3.09;75.46
39773;BME280;25451;51.960;6.250;2022-12-18T01:11:37;102698.63;;;-3.06;75.26
39773;BME280;25451;51.960;6.250;2022-12-18T01:14:02;102702.28;;;-3.07;75.25
39773;BME280;25451;51.960;6.250;2022-12-18T01:16:27;102707.25;;;-3.13;75.42
39773;BME280;25451;51.960;6.250;2022-12-18T01:18:53;102717.00;;;-3.11;75.87
39773;BME280;25451;51.960;6.250;2022-12-18T01:21:20;102708.25;;;-3.14;75.69
39773;BME280;25451;51.960;6.250;2022-12-18T01:23:46;102698.84;;;-3.21;75.52
39773;BME280;25451;51.960;6.250;2022-12-18T01:26:14;102706.00;;;-3.20;75.60
39773;BME280;25451;51.960;6.250;2022-12-18T01:28:40;102704.25;;;-3.21;75.46
39773;BME280;25451;51.960;6.250;2022-12-18T01:33:43;102678.81;;;-3.30;75.04
39773;BME280;25451;51.960;6.250;2022-12-18T01:36:14;102676.63;;;-3.25;74.94
39773;BME280;25451;51.960;6.250;2022-12-18T01:38:40;102688.72;;;-3.30;75.06
39773;BME280;25451;51.960;6.250;2022-12-18T01:41:06;102696.94;;;-3.32;75.56
39773;BME280;25451;51.960;6.250;2022-12-18T01:46:06;102688.09;;;-3.34;75.39
39773;BME280;25451;51.960;6.250;2022-12-18T01:48:31;102685.59;;;-3.37;75.25
39773;BME280;25451;51.960;6.250;2022-12-18T01:50:57;102676.88;;;-3.41;75.20
39773;BME280;25451;51.960;6.250;2022-12-18T01:53:23;102682.47;;;-3.44;75.62
39773;BME280;25451;51.960;6.250;2022-12-18T01:55:55;102694.13;;;-3.43;75.72
39773;BME280;25451;51.960;6.250;2022-12-18T01:58:24;102681.19;;;-3.51;75.42
39773;BME280;25451;51.960;6.250;2022-12-18T02:00:54;102686.16;;;-3.57;75.41
39773;BME280;25451;51.960;6.250;2022-12-18T02:03:19;102695.88;;;-3.55;74.84
39773;BME280;25451;51.960;6.250;2022-12-18T02:08:44;102697.59;;;-3.54;75.55
39773;BME280;25451;51.960;6.250;2022-12-18T02:11:56;102713.91;;;-3.55;74.80
39773;BME280;25451;51.960;6.250;2022-12-18T02:17:04;102706.22;;;-3.61;75.16
39773;BME280;25451;51.960;6.250;2022-12-18T02:22:29;102709.81;;;-3.61;74.92
39773;BME280;25451;51.960;6.250;2022-12-18T02:27:43;102688.53;;;-3.65;74.85
39773;BME280;25451;51.960;6.250;2022-12-18T02:30:10;102671.91;;;-3.72;75.25
39773;BME280;25451;51.960;6.250;2022-12-18T02:32:41;102677.31;;;-3.72;75.01
39773;BME280;25451;51.960;6.250;2022-12-18T02:35:15;102681.06;;;-3.74;74.80
39773;BME280;25451;51.960;6.250;2022-12-18T02:37:43;102693.28;;;-3.69;74.90
39773;BME280;25451;51.960;6.250;2022-12-18T02:40:09;102692.72;;;-3.74;74.66
39773;BME280;25451;51.960;6.250;2022-12-18T02:42:36;102677.97;;;-3.81;75.31
39773;BME280;25451;51.960;6.250;2022-12-18T02:45:01;102706.97;;;-3.72;75.03
39773;BME280;25451;51.960;6.250;2022-12-18T02:47:32;102691.97;;;-3.76;74.47
39773;BME280;25451;51.960;6.250;2022-12-18T02:58:37;102696.41;;;-3.75;74.58
39773;BME280;25451;51.960;6.250;2022-12-18T03:01:15;102669.31;;;-3.86;74.74
39773;BME280;25451;51.960;6.250;2022-12-18T03:03:47;102683.34;;;-3.81;74.48
39773;BME280;25451;51.960;6.250;2022-12-18T03:06:27;102681.50;;;-3.80;75.13
39773;BME280;25451;51.960;6.250;2022-12-18T03:08:58;102689.50;;;-3.79;74.65
39773;BME280;25451;51.960;6.250;2022-12-18T03:11:25;102693.28;;;-3.81;74.73
39773;BME280;25451;51.960;6.250;2022-12-18T03:14:12;102677.53;;;-3.87;75.01
39773;BME280;25451;51.960;6.250;2022-12-18T03:16:41;102684.75;;;-3.88;75.08
39773;BME280;25451;51.960;6.250;2022-12-18T03:19:11;102687.44;;;-3.88;74.70
39773;BME280;25451;51.960;6.250;2022-12-18T03:21:43;102696.41;;;-3.87;74.63
39773;BME280;25451;51.960;6.250;2022-12-18T03:24:11;102701.69;;;-3.86;74.63
39773;BME280;25451;51.960;6.250;2022-12-18T03:26:40;102675.13;;;-3.92;75.07
39773;BME280;25451;51.960;6.250;2022-12-18T03:29:40;102686.56;;;-3.88;75.16
39773;BME280;25451;51.960;6.250;2022-12-18T03:32:10;102669.19;;;-3.97;74.53
39773;BME280;25451;51.960;6.250;2022-12-18T03:34:39;102672.75;;;-3.96;74.81
39773;BME280;25451;51.960;6.250;2022-12-18T03:37:05;102681.41;;;-3.91;74.85
39773;BME280;25451;51.960;6.250;2022-12-18T03:39:31;102676.09;;;-3.93;74.88
39773;BME280;25451;51.960;6.250;2022-12-18T03:42:26;102668.00;;;-3.93;75.02
39773;BME280;25451;51.960;6.250;2022-12-18T03:45:14;102661.75;;;-3.93;74.62
39773;BME280;25451;51.960;6.250;2022-12-18T03:50:16;102658.31;;;-3.95;74.95
39773;BME280;25451;51.960;6.250;2022-12-18T03:52:48;102652.03;;;-3.96;74.51
39773;BME280;25451;51.960;6.250;2022-12-18T03:55:17;102632.84;;;-4.04;74.64
39773;BME280;25451;51.960;6.250;2022-12-18T03:57:45;102653.88;;;-3.96;74.61
39773;BME280;25451;51.960;6.250;2022-12-18T04:00:14;102647.06;;;-4.02;74.69
39773;BME280;25451;51.960;6.250;2022-12-18T04:02:45;102663.03;;;-3.99;74.48
39773;BME280;25451;51.960;6.250;2022-12-18T04:05:11;102645.34;;;-4.03;74.71
39773;BME280;25451;51.960;6.250;2022-12-18T04:07:38;102647.28;;;-4.05;75.05
39773;BME280;25451;51.960;6.250;2022-12-18T04:10:06;102654.00;;;-3.98;74.63
39773;BME280;25451;51.960;6.250;2022-12-18T04:12:32;102629.06;;;-4.14;74.56
39773;BME280;25451;51.960;6.250;2022-12-18T04:14:57;102650.66;;;-4.01;74.86
39773;BME280;25451;51.960;6.250;2022-12-18T04:17:22;102659.56;;;-4.01;74.37
39773;BME280;25451;51.960;6.250;2022-12-18T04:19:48;102658.94;;;-4.04;74.89
39773;BME280;25451;51.960;6.250;2022-12-18T04:22:13;102656.13;;;-4.03;74.95
39773;BME280;25451;51.960;6.250;2022-12-18T04:24:38;102642.09;;;-4.08;74.84
39773;BME280;25451;51.960;6.250;2022-12-18T04:27:04;102640.38;;;-4.09;74.74
39773;BME280;25451;51.960;6.250;2022-12-18T04:29:29;102645.56;;;-4.06;74.64
39773;BME280;25451;51.960;6.250;2022-12-18T04:31:54;102631.53;;;-4.11;74.32
39773;BME280;25451;51.960;6.250;2022-12-18T04:34:20;102632.50;;;-4.12;74.65
39773;BME280;25451;51.960;6.250;2022-12-18T04:36:46;102634.97;;;-4.09;74.37
39773;BME280;25451;51.960;6.250;2022-12-18T04:39:11;102635.22;;;-4.12;74.60
39773;BME280;25451;51.960;6.250;2022-12-18T04:41:36;102622.91;;;-4.16;74.72
39773;BME280;25451;51.960;6.250;2022-12-18T04:44:01;102624.41;;;-4.12;74.38
39773;BME280;25451;51.960;6.250;2022-12-18T04:46:27;102618.38;;;-4.15;74.85
39773;BME280;25451;51.960;6.250;2022-12-18T04:48:52;102618.47;;;-4.17;74.69
39773;BME280;25451;51.960;6.250;2022-12-18T04:51:17;102622.34;;;-4.21;74.60
39773;BME280;25451;51.960;6.250;2022-12-18T04:53:43;102626.56;;;-4.17;74.62
39773;BME280;25451;51.960;6.250;2022-12-18T04:56:13;102627.44;;;-4.16;74.75
39773;BME280;25451;51.960;6.250;2022-12-18T04:58:41;102628.41;;;-4.17;74.72
39773;BME280;25451;51.960;6.250;2022-12-18T05:01:07;102632.94;;;-4.18;74.71
39773;BME280;25451;51.960;6.250;2022-12-18T05:03:33;102635.81;;;-4.21;74.86
39773;BME280;25451;51.960;6.250;2022-12-18T05:05:59;102635.00;;;-4.22;74.63
39773;BME280;25451;51.960;6.250;2022-12-18T05:08:25;102626.78;;;-4.20;74.34
39773;BME280;25451;51.960;6.250;2022-12-18T05:11:19;102635.81;;;-4.21;74.90
39773;BME280;25451;51.960;6.250;2022-12-18T05:13:44;102632.38;;;-4.23;74.51
39773;BME280;25451;51.960;6.250;2022-12-18T05:16:10;102627.75;;;-4.21;74.54
39773;BME280;25451;51.960;6.250;2022-12-18T05:18:36;102619.13;;;-4.26;74.78
39773;BME280;25451;51.960;6.250;2022-12-18T05:21:02;102630.66;;;-4.24;74.60
39773;BME280;25451;51.960;6.250;2022-12-18T05:23:27;102629.78;;;-4.25;74.74
39773;BME280;25451;51.960;6.250;2022-12-18T05:25:55;102600.97;;;-4.49;74.43
39773;BME280;25451;51.960;6.250;2022-12-18T05:28:22;102654.81;;;-4.23;74.52
39773;BME280;25451;51.960;6.250;2022-12-18T05:30:49;102661.06;;;-4.22;74.74
39773;BME280;25451;51.960;6.250;2022-12-18T05:33:15;102659.31;;;-4.23;74.67
39773;BME280;25451;51.960;6.250;2022-12-18T05:35:41;102668.41;;;-4.24;74.71
39773;BME280;25451;51.960;6.250;2022-12-18T05:38:06;102671.22;;;-4.26;74.70
39773;BME280;25451;51.960;6.250;2022-12-18T05:40:31;102658.03;;;-4.30;74.30
39773;BME280;25451;51.960;6.250;2022-12-18T05:42:56;102674.22;;;-4.30;74.23
39773;BME280;25451;51.960;6.250;2022-12-18T05:45:22;102676.69;;;-4.27;74.80
39773;BME280;25451;51.960;6.250;2022-12-18T05:47:47;102682.19;;;-4.29;74.69
39773;BME280;25451;51.960;6.250;2022-12-18T05:50:12;102688.22;;;-4.25;74.48
39773;BME280;25451;51.960;6.250;2022-12-18T05:52:38;102685.75;;;-4.28;74.40
39773;BME280;25451;51.960;6.250;2022-12-18T05:55:03;102684.88;;;-4.29;74.57
39773;BME280;25451;51.960;6.250;2022-12-18T05:57:29;102672.88;;;-4.37;74.50
39773;BME280;25451;51.960;6.250;2022-12-18T05:59:54;102680.66;;;-4.33;74.63
39773;BME280;25451;51.960;6.250;2022-12-18T06:02:20;102665.44;;;-4.34;74.76
39773;BME280;25451;51.960;6.250;2022-12-18T06:04:46;102670.84;;;-4.34;74.37
39773;BME280;25451;51.960;6.250;2022-12-18T06:07:11;102671.50;;;-4.30;74.30
39773;BME280;25451;51.960;6.250;2022-12-18T06:09:36;102656.53;;;-4.34;74.44
39773;BME280;25451;51.960;6.250;2022-12-18T06:12:02;102659.00;;;-4.31;74.38
39773;BME280;25451;51.960;6.250;2022-12-18T06:14:27;102647.34;;;-4.32;74.43
39773;BME280;25451;51.960;6.250;2022-12-18T06:16:52;102634.38;;;-4.39;74.10
39773;BME280;25451;51.960;6.250;2022-12-18T06:19:18;102639.38;;;-4.33;74.12
39773;BME280;25451;51.960;6.250;2022-12-18T06:21:43;102645.75;;;-4.34;74.60
39773;BME280;25451;51.960;6.250;2022-12-18T06:24:09;102642.16;;;-4.35;74.65
39773;BME280;25451;51.960;6.250;2022-12-18T06:26:37;102640.34;;;-4.34;74.32
39773;BME280;25451;51.960;6.250;2022-12-18T06:29:02;102628.25;;;-4.41;74.63
39773;BME280;25451;51.960;6.250;2022-12-18T06:31:28;102625.25;;;-4.37;74.30
39773;BME280;25451;51.960;6.250;2022-12-18T06:33:53;102620.91;;;-4.39;74.29
39773;BME280;25451;51.960;6.250;2022-12-18T06:36:18;102628.88;;;-4.38;74.39
39773;BME280;25451;51.960;6.250;2022-12-18T06:38:45;102634.09;;;-4.35;74.64
39773;BME280;25451;51.960;6.250;2022-12-18T06:41:16;102630.00;;;-4.40;74.09
39773;BME280;25451;51.960;6.250;2022-12-18T06:43:42;102617.47;;;-4.41;74.32
39773;BME280;25451;51.960;6.250;2022-12-18T06:46:08;102615.75;;;-4.42;74.40
39773;BME280;25451;51.960;6.250;2022-12-18T06:48:33;102620.16;;;-4.41;74.30
39773;BME280;25451;51.960;6.250;2022-12-18T06:50:59;102620.38;;;-4.44;74.03
39773;BME280;25451;51.960;6.250;2022-12-18T06:53:25;102618.44;;;-4.42;74.29
39773;BME280;25451;51.960;6.250;2022-12-18T06:55:50;102615.53;;;-4.39;74.42
39773;BME280;25451;51.960;6.250;2022-12-18T06:58:16;102624.19;;;-4.34;74.25
39773;BME280;25451;51.960;6.250;2022-12-18T07:00:42;102611.00;;;-4.39;74.06
39773;BME280;25451;51.960;6.250;2022-12-18T07:03:07;102610.13;;;-4.39;74.18
39773;BME280;25451;51.960;6.250;2022-12-18T07:05:32;102600.34;;;-4.40;74.36
39773;BME280;25451;51.960;6.250;2022-12-18T07:07:59;102608.19;;;-4.37;73.94
39773;BME280;25451;51.960;6.250;2022-12-18T07:10:24;102606.38;;;-4.37;73.94
39773;BME280;25451;51.960;6.250;2022-12-18T07:12:50;102595.03;;;-4.42;74.30
39773;BME280;25451;51.960;6.250;2022-12-18T07:15:15;102596.66;;;-4.39;74.13
39773;BME280;25451;51.960;6.250;2022-12-18T07:17:40;102591.16;;;-4.38;73.89
39773;BME280;25451;51.960;6.250;2022-12-18T07:20:06;102595.47;;;-4.35;74.25
39773;BME280;25451;51.960;6.250;2022-12-18T07:22:32;102590.41;;;-4.40;74.06
39773;BME280;25451;51.960;6.250;2022-12-18T07:24:57;102599.25;;;-4.38;74.30
39773;BME280;25451;51.960;6.250;2022-12-18T07:27:22;102604.63;;;-4.38;74.41
39773;BME280;25451;51.960;6.250;2022-12-18T07:29:48;102608.44;;;-4.40;74.07
39773;BME280;25451;51.960;6.250;2022-12-18T07:32:13;102603.03;;;-4.40;74.04
39773;BME280;25451;51.960;6.250;2022-12-18T07:34:39;102618.22;;;-4.39;74.37
39773;BME280;25451;51.960;6.250;2022-12-18T07:37:04;102623.31;;;-4.35;74.26
39773;BME280;25451;51.960;6.250;2022-12-18T07:39:30;102615.09;;;-4.33;74.04
39773;BME280;25451;51.960;6.250;2022-12-18T07:41:55;102606.25;;;-4.35;73.86
39773;BME280;25451;51.960;6.250;2022-12-18T07:44:39;102606.38;;;-4.37;74.38
39773;BME280;25451;51.960;6.250;2022-12-18T07:47:05;102591.06;;;-4.36;73.97
39773;BME280;25451;51.960;6.250;2022-12-18T07:49:30;102598.94;;;-4.33;74.04
39773;BME280;25451;51.960;6.250;2022-12-18T07:51:56;102590.84;;;-4.33;74.33
39773;BME280;25451;51.960;6.250;2022-12-18T07:54:22;102583.63;;;-4.33;74.11
39773;BME280;25451;51.960;6.250;2022-12-18T07:56:48;102566.41;;;-4.30;74.09
39773;BME280;25451;51.960;6.250;2022-12-18T07:59:13;102572.22;;;-4.24;74.31
39773;BME280;25451;51.960;6.250;2022-12-18T08:01:38;102567.59;;;-4.22;73.63
39773;BME280;25451;51.960;6.250;2022-12-18T08:04:04;102571.13;;;-4.21;74.18
39773;BME280;25451;51.960;6.250;2022-12-18T08:06:29;102567.91;;;-4.26;73.95
39773;BME280;25451;51.960;6.250;2022-12-18T08:08:55;102571.88;;;-4.19;73.94
39773;BME280;25451;51.960;6.250;2022-12-18T08:11:22;102555.63;;;-4.17;73.76
39773;BME280;25451;51.960;6.250;2022-12-18T08:13:47;102541.81;;;-4.26;74.04
39773;BME280;25451;51.960;6.250;2022-12-18T08:16:13;102535.00;;;-4.18;73.98
39773;BME280;25451;51.960;6.250;2022-12-18T08:18:38;102530.63;;;-4.19;74.41
39773;BME280;25451;51.960;6.250;2022-12-18T08:23:39;102549.56;;;-4.08;74.06
39773;BME280;25451;51.960;6.250;2022-12-18T08:26:05;102545.03;;;-4.08;73.92
39773;BME280;25451;51.960;6.250;2022-12-18T08:28:30;102538.47;;;-4.04;74.31
39773;BME280;25451;51.960;6.250;2022-12-18T08:30:56;102544.16;;;-3.96;73.58
39773;BME280;25451;51.960;6.250;2022-12-18T08:33:21;102550.09;;;-3.91;74.07
39773;BME280;25451;51.960;6.250;2022-12-18T08:35:47;102537.03;;;-3.97;73.88
39773;BME280;25451;51.960;6.250;2022-12-18T08:38:12;102543.94;;;-3.80;73.49
39773;BME280;25451;51.960;6.250;2022-12-18T08:40:37;102551.25;;;-3.70;73.45
39773;BME280;25451;51.960;6.250;2022-12-18T08:43:03;102529.78;;;-3.71;73.75
39773;BME280;25451;51.960;6.250;2022-12-18T08:45:46;102530.97;;;-3.63;73.40
39773;BME280;25451;51.960;6.250;2022-12-18T08:48:12;102525.88;;;-3.55;73.38
39773;BME280;25451;51.960;6.250;2022-12-18T08:50:37;102524.66;;;-3.51;73.44
39773;BME280;25451;51.960;6.250;2022-12-18T08:53:03;102546.22;;;-3.38;73.31
39773;BME280;25451;51.960;6.250;2022-12-18T08:55:28;102536.06;;;-3.34;73.86
39773;BME280;25451;51.960;6.250;2022-12-18T08:57:53;102550.72;;;-3.26;73.43
39773;BME280;25451;51.960;6.250;2022-12-18T09:00:19;102547.78;;;-3.23;72.87
39773;BME280;25451;51.960;6.250;2022-12-18T09:02:45;102559.19;;;-3.19;73.63
39773;BME280;25451;51.960;6.250;2022-12-18T09:05:10;102563.19;;;-3.12;72.88
39773;BME280;25451;51.960;6.250;2022-12-18T09:07:35;102550.63;;;-3.13;73.02
39773;BME280;25451;51.960;6.250;2022-12-18T09:10:01;102551.91;;;-3.06;72.92
39773;BME280;25451;51.960;6.250;2022-12-18T09:12:26;102547.78;;;-2.99;73.14
39773;BME280;25451;51.960;6.250;2022-12-18T09:14:52;102535.25;;;-3.00;73.03
39773;BME280;25451;51.960;6.250;2022-12-18T09:17:17;102544.38;;;-2.90;73.16
39773;BME280;25451;51.960;6.250;2022-12-18T09:19:42;102556.47;;;-2.83;73.17
39773;BME280;25451;51.960;6.250;2022-12-18T09:22:08;102542.97;;;-2.83;72.99
39773;BME280;25451;51.960;6.250;2022-12-18T09:24:34;102533.38;;;-2.76;72.78
39773;BME280;25451;51.960;6.250;2022-12-18T09:27:00;102532.16;;;-2.72;72.88
39773;BME280;25451;51.960;6.250;2022-12-18T09:29:25;102527.78;;;-2.62;73.44
39773;BME280;25451;51.960;6.250;2022-12-18T09:31:51;102539.59;;;-2.52;73.33
39773;BME280;25451;51.960;6.250;2022-12-18T09:34:16;102519.84;;;-2.53;73.12
39773;BME280;25451;51.960;6.250;2022-12-18T09:36:42;102527.09;;;-2.42;72.84
39773;BME280;25451;51.960;6.250;2022-12-18T09:39:07;102511.13;;;-2.34;73.01
39773;BME280;25451;51.960;6.250;2022-12-18T09:46:44;102521.00;;;-2.11;73.41
39773;BME280;25451;51.960;6.250;2022-12-18T09:49:16;102505.66;;;-2.10;73.17
39773;BME280;25451;51.960;6.250;2022-12-18T09:51:55;102514.88;;;-2.02;72.97
39773;BME280;25451;51.960;6.250;2022-12-18T09:54:39;102528.41;;;-1.91;73.33
39773;BME280;25451;51.960;6.250;2022-12-18T09:57:05;102524.47;;;-1.87;73.10
39773;BME280;25451;51.960;6.250;2022-12-18T09:59:38;102516.84;;;-1.82;73.12
39773;BME280;25451;51.960;6.250;2022-12-18T10:02:19;102508.34;;;-1.77;73.32
39773;BME280;25451;51.960;6.250;2022-12-18T10:07:54;102513.38;;;-1.61;73.13
39773;BME280;25451;51.960;6.250;2022-12-18T10:20:55;102493.06;;;-1.45;73.38
39773;BME280;25451;51.960;6.250;2022-12-18T10:26:12;102475.44;;;-1.39;72.62
39773;BME280;25451;51.960;6.250;2022-12-18T10:28:39;102484.00;;;-1.34;73.38
39773;BME280;25451;51.960;6.250;2022-12-18T10:31:06;102483.78;;;-1.31;73.11
39773;BME280;25451;51.960;6.250;2022-12-18T10:33:33;102482.66;;;-1.29;72.80
39773;BME280;25451;51.960;6.250;2022-12-18T10:35:59;102474.41;;;-1.27;73.26
39773;BME280;25451;51.960;6.250;2022-12-18T10:38:30;102459.41;;;-1.31;73.53
39773;BME280;25451;51.960;6.250;2022-12-18T10:46:17;102462.53;;;-1.15;72.75
39773;BME280;25451;51.960;6.250;2022-12-18T10:51:24;102438.22;;;-1.06;73.14
39773;BME280;25451;51.960;6.250;2022-12-18T10:54:02;102428.25;;;-1.05;73.30
39773;BME280;25451;51.960;6.250;2022-12-18T10:56:30;102424.44;;;-1.03;73.40
39773;BME280;25451;51.960;6.250;2022-12-18T10:59:04;102420.63;;;-1.00;72.73
39773;BME280;25451;51.960;6.250;2022-12-18T11:01:52;102411.22;;;-0.96;73.02
39773;BME280;25451;51.960;6.250;2022-12-18T11:04:22;102418.94;;;-0.92;72.91
39773;BME280;25451;51.960;6.250;2022-12-18T11:07:03;102412.41;;;-0.89;72.85
39773;BME280;25451;51.960;6.250;2022-12-18T11:09:34;102409.97;;;-0.92;73.45
39773;BME280;25451;51.960;6.250;2022-12-18T11:12:15;102415.72;;;-0.86;72.75
39773;BME280;25451;51.960;6.250;2022-12-18T11:14:51;102423.44;;;-0.81;72.75
39773;BME280;25451;51.960;6.250;2022-12-18T11:17:25;102425.91;;;-0.78;73.24
39773;BME280;25451;51.960;6.250;2022-12-18T11:19:59;102405.72;;;-0.85;72.96
39773;BME280;25451;51.960;6.250;2022-12-18T11:22:31;102428.09;;;-0.72;72.66
39773;BME280;25451;51.960;6.250;2022-12-18T11:25:17;102412.41;;;-0.68;72.98
39773;BME280;25451;51.960;6.250;2022-12-18T11:33:35;102414.44;;;-0.61;72.81
39773;BME280;25451;51.960;6.250;2022-12-18T11:36:02;102393.91;;;-0.63;72.64
39773;BME280;25451;51.960;6.250;2022-12-18T11:38:37;102398.63;;;-0.56;73.17
39773;BME280;25451;51.960;6.250;2022-12-18T11:43:52;102373.94;;;-0.53;72.71
39773;BME280;25451;51.960;6.250;2022-12-18T11:46:29;102372.44;;;-0.46;72.87
39773;BME280;25451;51.960;6.250;2022-12-18T11:49:03;102368.69;;;-0.45;72.53
39773;BME280;25451;51.960;6.250;2022-12-18T11:51:43;102372.91;;;-0.41;72.52
39773;BME280;25451;51.960;6.250;2022-12-18T11:54:14;102369.72;;;-0.46;73.04
39773;BME280;25451;51.960;6.250;2022-12-18T11:57:06;102372.59;;;-0.38;72.44
39773;BME280;25451;51.960;6.250;2022-12-18T12:02:36;102377.22;;;-0.29;72.95
39773;BME280;25451;51.960;6.250;2022-12-18T12:08:20;102366.66;;;-0.22;72.71
39773;BME280;25451;51.960;6.250;2022-12-18T12:11:10;102351.97;;;-0.20;72.52
39773;BME280;25451;51.960;6.250;2022-12-18T12:22:34;102332.88;;;-0.09;72.34
39773;BME280;25451;51.960;6.250;2022-12-18T12:36:48;102321.06;;;0.02;72.30
39773;BME280;25451;51.960;6.250;2022-12-18T12:39:22;102320.19;;;0.02;72.22
39773;BME280;25451;51.960;6.250;2022-12-18T12:41:53;102320.59;;;0.07;72.99
39773;BME280;25451;51.960;6.250;2022-12-18T12:44:45;102326.75;;;0.09;72.17
39773;BME280;25451;51.960;6.250;2022-12-18T12:47:31;102308.19;;;0.04;72.80
39773;BME280;25451;51.960;6.250;2022-12-18T12:50:00;102311.47;;;0.08;72.24
39773;BME280;25451;51.960;6.250;2022-12-18T12:52:45;102307.50;;;0.12;72.54
39773;BME280;25451;51.960;6.250;2022-12-18T12:55:32;102299.91;;;0.15;72.66
39773;BME280;25451;51.960;6.250;2022-12-18T13:00:25;102298.78;;;0.18;72.46
39773;BME280;25451;51.960;6.250;2022-12-18T13:03:12;102286.91;;;0.19;72.37
39773;BME280;25451;51.960;6.250;2022-12-18T13:06:04;102273.06;;;0.12;72.27
39773;BME280;25451;51.960;6.250;2022-12-18T13:08:52;102272.50;;;0.18;72.58
39773;BME280;25451;51.960;6.250;2022-12-18T13:14:31;102275.06;;;0.20;72.49
39773;BME280;25451;51.960;6.250;2022-12-18T13:19:52;102269.22;;;0.24;72.67
39773;BME280;25451;51.960;6.250;2022-12-18T13:22:30;102249.91;;;0.18;72.79
39773;BME280;25451;51.960;6.250;2022-12-18T13:24:56;102256.47;;;0.25;72.63
39773;BME280;25451;51.960;6.250;2022-12-18T13:35:55;102246.75;;;0.32;72.32
39773;BME280;25451;51.960;6.250;2022-12-18T13:43:46;102225.31;;;0.29;72.53
39773;BME280;25451;51.960;6.250;2022-12-18T13:46:21;102221.59;;;0.30;72.18
39773;BME280;25451;51.960;6.250;2022-12-18T13:49:06;102221.59;;;0.30;72.28
39773;BME280;25451;51.960;6.250;2022-12-18T13:51:49;102227.19;;;0.38;72.32
39773;BME280;25451;51.960;6.250;2022-12-18T13:54:33;102210.31;;;0.25;72.55
39773;BME280;25451;51.960;6.250;2022-12-18T13:57:00;102232.28;;;0.41;72.28
39773;BME280;25451;51.960;6.250;2022-12-18T13:59:36;102226.75;;;0.42;72.62
39773;BME280;25451;51.960;6.250;2022-12-18T14:04:36;102213.88;;;0.35;72.26
39773;BME280;25451;51.960;6.250;2022-12-18T14:07:04;102220.72;;;0.39;72.36
39773;BME280;25451;51.960;6.250;2022-12-18T14:09:36;102222.03;;;0.44;72.71
39773;BME280;25451;51.960;6.250;2022-12-18T14:12:03;102207.84;;;0.41;72.21
39773;BME280;25451;51.960;6.250;2022-12-18T14:14:48;102214.44;;;0.48;72.19
39773;BME280;25451;51.960;6.250;2022-12-18T14:17:16;102198.72;;;0.42;72.32
39773;BME280;25451;51.960;6.250;2022-12-18T14:19:48;102214.28;;;0.49;72.26
39773;BME280;25451;51.960;6.250;2022-12-18T14:22:17;102222.16;;;0.52;72.33
39773;BME280;25451;51.960;6.250;2022-12-18T14:24:43;102200.84;;;0.48;72.16
39773;BME280;25451;51.960;6.250;2022-12-18T14:27:20;102214.72;;;0.54;72.36
39773;BME280;25451;51.960;6.250;2022-12-18T14:29:47;102201.84;;;0.56;72.74
39773;BME280;25451;51.960;6.250;2022-12-18T14:32:15;102201.69;;;0.58;72.33
39773;BME280;25451;51.960;6.250;2022-12-18T14:37:11;102187.56;;;0.54;72.28
39773;BME280;25451;51.960;6.250;2022-12-18T14:39:38;102178.38;;;0.55;72.36
39773;BME280;25451;51.960;6.250;2022-12-18T14:42:03;102172.13;;;0.55;72.64
39773;BME280;25451;51.960;6.250;2022-12-18T14:44:29;102193.25;;;0.61;72.30
39773;BME280;25451;51.960;6.250;2022-12-18T14:46:54;102178.09;;;0.58;72.19
39773;BME280;25451;51.960;6.250;2022-12-18T14:49:31;102176.25;;;0.59;72.31
39773;BME280;25451;51.960;6.250;2022-12-18T14:52:06;102174.09;;;0.62;72.57
39773;BME280;25451;51.960;6.250;2022-12-18T14:54:33;102160.94;;;0.58;72.59
39773;BME280;25451;51.960;6.250;2022-12-18T14:57:21;102155.63;;;0.66;72.07
39773;BME280;25451;51.960;6.250;2022-12-18T14:59:47;102155.50;;;0.58;72.21
39773;BME280;25451;51.960;6.250;2022-12-18T15:02:27;102146.50;;;0.67;71.91
39773;BME280;25451;51.960;6.250;2022-12-18T15:05:01;102148.19;;;0.68;72.15